OPRNOPLA

Guest
Details From OPRN - CHAKLALA
To OPLA - ALLAMA IQBAL INTL
Flight Number -
Tags generated
Created
Modified
Stats Distance 146 nm / 271 km
Max Altitude 17,400 ft / 5,304 m
Waypoints 5
Social Downloads 2
Likes 0
Share VATSIM

Download

Looking for another format? Having issues loading an existing format? Contact us
Advertisement - Login to hide

Notes

Basic altitude profile: - Ascent Rate: 2500ft/min - Ascent Speed: 250kts - Cruise Altitude: 35000ft - Cruise Speed: 420kts - Descent Rate: 1500ft/min - Descent Speed: 250kts Options: - Use NATs: yes - Use PACOTS: yes - Use low airways: yes - Use high airways: yes

Route

OPRN POMAR J121 MATIN OPLA

ID Type Via Altitude Latitude Longitude Leg Dist Tot Dist Heading (true) Name
O OPRN APT - 0 ft / 0 m 33.61677˚ 73.09881˚ - 0 nm - CHAKLALA
POMAR FIX - 7,600 ft / 2,316 m 33.26667˚ 73.16611˚ 21 nm 21 nm 171° / 171° -
INDEK FIX J121 (AWY-LO) 17,400 ft / 5,304 m 32.76667˚ 73.26611˚ 30 nm 51 nm 170° / 171° -
MATIN FIX J121 (AWY-LO) 6,800 ft / 2,073 m 31.93833˚ 74.01278˚ 62 nm 114 nm 143° / 143° -
O OPLA APT - 0 ft / 0 m 31.52156˚ 74.40359˚ 32 nm 146 nm 141° / 142° ALLAMA IQBAL INTL

Altitude Profile

Advertisement - Login to hide

OPRN

Details ICAO OPRN (ISB)
Name CHAKLALA
Region Pakistan
Timezone Asia/Karachi (UTC+5.0)
Stats Elevation 1,668 ft / 508 m (AMSL)
Location 33.616768° 73.098812°
Runways 1
Magnetic Variation 2.613° E

METAR

OPRN 122330Z 27004KT 2000 BR SCT035 BKN080 09/08 Q1018.0/30.06

Decode

TAF

Not found

Departure Runways

ID Width Length Bearing (true) Bearing (mag) Surface Threshold Offset Overrun Length
12 150 ft / 46 m 10,795 ft / 3,290 m 118.28° 115.67° Asphalt 885 ft / 270 m 680 ft / 207 m
30 150 ft / 46 m 10,795 ft / 3,290 m 298.30° 295.69° Asphalt 885 ft / 270 m 740 ft / 226 m

OPLA

Details ICAO OPLA (LHE)
Name ALLAMA IQBAL INTL
Region Pakistan
Timezone Asia/Karachi (UTC+5.0)
Stats Elevation 712 ft / 217 m (AMSL)
Location 31.521562° 74.403591°
Runways 2
Magnetic Variation 2.011° E

METAR

OPLA 122300Z 00000KT 0800 R36/1200D RMID/1400U R18/1700U FG FEW040 BKN100 10/09 Q1018 A30.04

Decode

TAF

Not found

Destination Runways

ID Width Length Bearing (true) Bearing (mag) Surface Threshold Offset Overrun Length
18L 151 ft / 46 m 11,014 ft / 3,357 m 180.88° 178.87° Concrete 0 ft / 0 m 410 ft / 125 m
18R 151 ft / 46 m 9,023 ft / 2,750 m 180.87° 178.86° Asphalt 0 ft / 0 m 915 ft / 279 m
36L 151 ft / 46 m 9,023 ft / 2,750 m 0.87° 358.86° Asphalt 0 ft / 0 m 0 ft / 0 m
36R 151 ft / 46 m 11,014 ft / 3,357 m 0.88° 358.87° Concrete 0 ft / 0 m 420 ft / 128 m

Approach Navaids

Runway Type Ident Frequency Range Bearing (true) Bearing (mag) Slope Elevation
36R Localiser ILA 109.90 MHz 18 nm / 33 km 0.79° 358.78° - 707 ft / 215 m (AMSL)
36R Glidescope ILA 109.90 MHz 10 nm / 19 km 0.88° 358.87° 3.00° 707 ft / 215 m (AMSL)
36R DME ILA 109.90 MHz 18 nm / 33 km - - - 712 ft / 217 m (AMSL)

Popular Alternatives